createdAt,value
2018-09-03T00:00:40.098Z,16.17
2018-09-03T00:03:09.509Z,20.53
2018-09-03T00:05:38.914Z,20.00
2018-09-03T00:08:08.249Z,18.00
2018-09-03T00:10:37.690Z,19.37
2018-09-03T00:13:07.009Z,19.67
2018-09-03T00:15:36.525Z,17.90
2018-09-03T00:18:06.048Z,21.63
2018-09-03T00:20:35.794Z,22.93
2018-09-03T00:23:05.248Z,22.60
2018-09-03T00:25:35.182Z,23.70
2018-09-03T00:28:04.591Z,20.93
2018-09-03T00:30:33.915Z,22.40
2018-09-03T00:33:08.549Z,18.20
2018-09-03T00:35:43.905Z,20.70
2018-09-03T00:38:18.364Z,15.80
2018-09-03T00:40:53.041Z,13.37
2018-09-03T00:43:27.596Z,13.17
2018-09-03T00:46:02.227Z,15.53
2018-09-03T00:48:31.553Z,14.17
2018-09-03T00:51:00.864Z,15.60
2018-09-03T00:53:30.282Z,15.33
2018-09-03T00:55:59.736Z,14.77
2018-09-03T00:58:29.092Z,15.90
2018-09-03T01:00:59.304Z,15.60
2018-09-03T01:03:28.731Z,28.23
2018-09-03T01:05:58.062Z,30.23
2018-09-03T01:08:28.002Z,30.60
2018-09-03T01:10:57.523Z,35.17
2018-09-03T01:13:27.269Z,29.23
2018-09-03T01:15:56.630Z,26.77
2018-09-03T01:18:26.059Z,27.77
2018-09-03T01:20:55.370Z,26.57
2018-09-03T01:23:25.458Z,22.40
2018-09-03T01:25:54.819Z,38.40
2018-09-03T01:28:24.995Z,43.77
2018-09-03T01:30:55.123Z,48.60
2018-09-03T01:33:25.280Z,27.17
2018-09-03T01:35:55.306Z,23.00
2018-09-03T01:38:24.773Z,17.03
2018-09-03T01:40:54.549Z,10.97
2018-09-03T01:43:23.880Z,10.63
2018-09-03T01:45:53.303Z,19.80
2018-09-03T01:48:22.631Z,13.87
2018-09-03T01:50:51.948Z,12.23
2018-09-03T01:53:21.387Z,15.83
2018-09-03T01:55:51.037Z,12.73
2018-09-03T01:58:20.393Z,11.53
2018-09-03T02:00:50.465Z,10.40
2018-09-03T02:03:19.900Z,12.77
2018-09-03T02:05:49.740Z,13.23
2018-09-03T02:08:19.074Z,11.97
2018-09-03T02:10:48.712Z,17.87
2018-09-03T02:13:18.173Z,14.37
2018-09-03T02:15:47.660Z,13.47
2018-09-03T02:18:17.030Z,17.67
2018-09-03T02:20:46.460Z,15.13
2018-09-03T02:23:16.320Z,14.43
2018-09-03T02:25:45.646Z,17.07
2018-09-03T02:28:15.018Z,18.17
2018-09-03T02:30:44.557Z,19.50
2018-09-03T02:33:13.886Z,30.10
2018-09-03T02:35:43.815Z,33.70
2018-09-03T02:38:13.202Z,31.03
2018-09-03T02:40:42.512Z,29.00
2018-09-03T02:43:11.932Z,45.00
2018-09-03T02:45:41.886Z,44.53
2018-09-03T02:48:12.601Z,51.80
2018-09-03T02:50:41.960Z,65.73
2018-09-03T02:53:11.312Z,90.13
2018-09-03T02:55:40.760Z,57.73
2018-09-03T02:58:11.419Z,65.43
2018-09-03T03:00:40.757Z,63.10
2018-09-03T03:03:10.102Z,62.63
2018-09-03T03:05:39.512Z,60.03
2018-09-03T03:08:08.840Z,45.13
2018-09-03T03:10:38.313Z,42.70
2018-09-03T03:13:07.777Z,60.00
2018-09-03T03:15:37.111Z,38.83
2018-09-03T03:18:06.622Z,50.97
2018-09-03T03:20:35.937Z,53.83
2018-09-03T03:23:05.431Z,52.43
2018-09-03T03:25:34.973Z,64.00
2018-09-03T03:28:04.965Z,81.10
2018-09-03T03:30:34.365Z,102.00
2018-09-03T03:33:03.929Z,79.30
2018-09-03T03:35:33.591Z,69.50
2018-09-03T03:38:03.124Z,91.63
2018-09-03T03:40:32.579Z,130.93
2018-09-03T03:43:02.463Z,195.00
2018-09-03T03:45:32.304Z,89.80
2018-09-03T03:48:01.602Z,91.30
2018-09-03T03:50:31.696Z,113.73
2018-09-03T03:53:01.090Z,85.47
2018-09-03T03:55:30.445Z,127.23
2018-09-03T03:57:59.796Z,59.03
2018-09-03T04:00:29.192Z,50.07
2018-09-03T04:02:58.508Z,53.70
2018-09-03T04:05:27.910Z,52.50
2018-09-03T04:07:57.288Z,67.30
2018-09-03T04:10:27.194Z,92.30
2018-09-03T04:12:59.276Z,60.20
2018-09-03T04:15:28.623Z,61.97
2018-09-03T04:17:58.091Z,66.27
2018-09-03T04:20:27.427Z,71.37
2018-09-03T04:22:56.900Z,80.80
2018-09-03T04:25:26.849Z,49.77
2018-09-03T04:27:56.687Z,51.57
2018-09-03T04:30:26.183Z,51.80
2018-09-03T04:32:56.010Z,61.47
2018-09-03T04:35:25.371Z,59.73
2018-09-03T04:37:54.727Z,64.90
2018-09-03T04:40:24.071Z,100.20
2018-09-03T04:42:53.634Z,109.93
2018-09-03T04:45:23.445Z,72.00
2018-09-03T04:47:52.799Z,65.50
2018-09-03T04:50:22.152Z,63.53
2018-09-03T04:52:52.500Z,60.50
2018-09-03T04:55:22.030Z,53.77
2018-09-03T04:57:51.930Z,52.00
2018-09-03T05:00:21.368Z,46.20
2018-09-03T05:02:50.834Z,50.73
2018-09-03T05:05:20.221Z,44.43
2018-09-03T05:07:50.744Z,45.53
2018-09-03T05:10:20.883Z,49.93
2018-09-03T05:12:50.842Z,46.67
2018-09-03T05:15:20.295Z,48.77
2018-09-03T05:17:50.370Z,55.53
2018-09-03T05:20:19.767Z,92.50
2018-09-03T05:22:50.955Z,61.00
2018-09-03T05:25:21.167Z,77.37
2018-09-03T05:27:51.158Z,66.83
2018-09-03T05:30:20.607Z,55.80
2018-09-03T05:32:50.351Z,62.90
2018-09-03T05:35:20.827Z,49.33
2018-09-03T05:37:50.414Z,74.10
2018-09-03T05:40:20.017Z,71.90
2018-09-03T05:42:51.226Z,68.03
2018-09-03T05:45:21.101Z,69.80
2018-09-03T05:47:52.508Z,75.93
2018-09-03T05:50:23.408Z,81.57
2018-09-03T05:53:01.780Z,64.87
2018-09-03T05:55:32.034Z,57.53
2018-09-03T05:58:01.466Z,59.70
2018-09-03T06:00:30.875Z,62.43
2018-09-03T06:03:01.323Z,73.10
2018-09-03T06:05:31.832Z,67.23
2018-09-03T06:08:01.395Z,61.30
2018-09-03T06:10:30.857Z,63.27
2018-09-03T06:13:00.587Z,65.23
2018-09-03T06:15:30.755Z,83.10
2018-09-03T06:18:00.441Z,97.90
2018-09-03T06:20:30.767Z,102.27
2018-09-03T06:23:00.176Z,87.97
2018-09-03T06:25:29.695Z,95.57
2018-09-03T06:27:59.180Z,92.53
2018-09-03T06:30:28.964Z,86.37
2018-09-03T06:32:59.156Z,64.13
2018-09-03T06:35:28.581Z,59.27
2018-09-03T06:37:58.076Z,53.87
2018-09-03T06:40:28.272Z,46.37
2018-09-03T06:42:59.876Z,46.80
2018-09-03T06:45:29.570Z,37.67
2018-09-03T06:47:59.230Z,38.73
2018-09-03T06:50:29.435Z,46.47
2018-09-03T06:52:59.283Z,44.43
2018-09-03T06:55:29.191Z,40.47
2018-09-03T06:57:59.423Z,34.80
2018-09-03T07:00:29.391Z,29.77
2018-09-03T07:02:58.920Z,31.97
2018-09-03T07:05:28.789Z,32.93
2018-09-03T07:07:58.211Z,29.60
2018-09-03T07:10:27.719Z,27.50
2018-09-03T07:12:57.067Z,26.97
2018-09-03T07:15:27.239Z,26.20
2018-09-03T07:17:56.631Z,25.63
2018-09-03T07:20:26.111Z,25.87
2018-09-03T07:22:55.543Z,23.20
2018-09-03T07:25:24.901Z,22.10
2018-09-03T07:27:54.697Z,22.43
2018-09-03T07:30:24.349Z,24.63
2018-09-03T07:32:53.688Z,24.43
2018-09-03T07:35:23.177Z,22.03
2018-09-03T07:37:52.537Z,22.40
2018-09-03T07:40:22.065Z,20.13
2018-09-03T07:42:52.867Z,21.03
2018-09-03T07:45:22.382Z,20.97
2018-09-03T07:47:51.890Z,22.57
2018-09-03T07:50:21.711Z,20.87
2018-09-03T07:52:51.046Z,22.20
2018-09-03T07:55:20.990Z,22.57
2018-09-03T07:57:52.464Z,19.40
2018-09-03T08:00:24.784Z,22.73
2018-09-03T08:02:55.133Z,21.67
2018-09-03T08:05:24.546Z,22.47
2018-09-03T08:07:53.932Z,20.10
2018-09-03T08:10:23.385Z,22.97
2018-09-03T08:12:52.756Z,21.60
2018-09-03T08:15:23.247Z,20.53
2018-09-03T08:17:53.928Z,19.60
2018-09-03T08:20:23.355Z,19.93
2018-09-03T08:22:52.817Z,18.77
2018-09-03T08:25:22.541Z,19.53
2018-09-03T08:27:54.592Z,18.47
2018-09-03T08:30:24.328Z,18.00
2018-09-03T08:32:53.923Z,18.03
2018-09-03T08:35:23.729Z,18.33
2018-09-03T08:37:53.579Z,17.93
2018-09-03T08:40:23.534Z,18.23
2018-09-03T08:42:54.330Z,14.10
2018-09-03T08:45:23.857Z,15.07
2018-09-03T08:47:53.260Z,15.63
2018-09-03T08:50:22.671Z,13.83
2018-09-03T08:52:52.189Z,13.20
2018-09-03T08:55:22.020Z,13.50
2018-09-03T08:57:51.446Z,13.63
2018-09-03T09:00:20.804Z,14.40
2018-09-03T09:02:50.386Z,12.13
2018-09-03T09:05:19.796Z,11.50
2018-09-03T09:07:49.852Z,10.80
2018-09-03T09:10:19.285Z,11.30
2018-09-03T09:12:50.093Z,10.60
2018-09-03T09:15:19.468Z,9.33
2018-09-03T09:17:49.819Z,9.00
2018-09-03T09:20:20.127Z,8.60
2018-09-03T09:22:49.979Z,8.23
2018-09-03T09:25:20.194Z,9.00
2018-09-03T09:27:49.563Z,7.07
2018-09-03T09:30:20.046Z,7.10
2018-09-03T09:32:50.149Z,6.67
2018-09-03T09:35:20.801Z,6.53
2018-09-03T09:37:50.247Z,6.23
2018-09-03T09:40:19.572Z,5.80
2018-09-03T09:42:49.077Z,5.13
2018-09-03T09:45:18.500Z,4.10
2018-09-03T09:47:48.415Z,4.70
2018-09-03T09:50:17.719Z,4.17
2018-09-03T09:52:47.189Z,6.80
2018-09-03T09:55:17.841Z,6.00
2018-09-03T09:57:47.243Z,5.00
2018-09-03T10:00:22.173Z,4.93
2018-09-03T10:02:51.624Z,6.73
2018-09-03T10:05:21.055Z,5.93
2018-09-03T10:07:51.782Z,5.43
2018-09-03T10:10:21.205Z,6.10
2018-09-03T10:12:50.617Z,5.97
2018-09-03T10:15:19.996Z,6.27
2018-09-03T10:17:49.548Z,5.07
2018-09-03T10:20:19.972Z,5.07
2018-09-03T10:22:49.333Z,4.83
2018-09-03T10:25:18.776Z,4.43
2018-09-03T10:27:48.620Z,6.13
2018-09-03T10:30:19.488Z,4.20
2018-09-03T10:32:48.959Z,4.33
2018-09-03T10:35:18.283Z,4.47
2018-09-03T10:37:47.920Z,5.67
2018-09-03T10:40:17.350Z,5.50
2018-09-03T10:42:47.541Z,4.70
2018-09-03T10:45:17.215Z,5.17
2018-09-03T10:47:47.841Z,4.20
2018-09-03T10:50:17.268Z,4.17
2018-09-03T10:52:46.714Z,4.33
2018-09-03T10:55:16.207Z,3.77
2018-09-03T10:57:45.551Z,3.80
2018-09-03T11:00:16.359Z,3.90
2018-09-03T11:02:45.872Z,4.60
2018-09-03T11:05:15.694Z,3.87
2018-09-03T11:07:45.027Z,4.27
2018-09-03T11:10:14.898Z,4.33
2018-09-03T11:12:45.229Z,5.00
2018-09-03T11:15:16.085Z,4.00
2018-09-03T11:17:46.197Z,6.60
2018-09-03T11:20:25.132Z,4.67
2018-09-03T11:22:55.708Z,3.57
2018-09-03T11:25:27.866Z,3.27
2018-09-03T11:27:57.297Z,3.87
2018-09-03T11:30:27.964Z,3.20
2018-09-03T11:32:59.423Z,4.03
2018-09-03T11:35:28.926Z,3.80
2018-09-03T11:37:59.151Z,3.23
2018-09-03T11:40:28.632Z,3.80
2018-09-03T11:42:58.074Z,3.40
2018-09-03T11:45:27.498Z,3.13
2018-09-03T11:47:56.927Z,2.97
2018-09-03T11:50:26.931Z,3.20
2018-09-03T11:52:56.358Z,2.57
2018-09-03T11:55:26.281Z,4.60
2018-09-03T11:57:56.179Z,3.00
2018-09-03T12:00:28.829Z,2.60
2018-09-03T12:02:58.507Z,2.43
2018-09-03T12:05:29.436Z,2.53
2018-09-03T12:07:59.335Z,3.37
2018-09-03T12:10:29.223Z,2.83
2018-09-03T12:12:59.311Z,3.13
2018-09-03T12:15:47.823Z,3.30
2018-09-03T12:18:19.547Z,2.40
2018-09-03T12:20:49.679Z,3.20
2018-09-03T12:23:22.541Z,2.10
2018-09-03T12:25:53.241Z,2.17
2018-09-03T12:28:23.328Z,2.13
2018-09-03T12:30:53.750Z,1.90
2018-09-03T12:33:24.946Z,2.43
2018-09-03T12:35:55.748Z,1.83
2018-09-03T12:38:26.298Z,3.83
2018-09-03T12:40:55.801Z,2.17
2018-09-03T12:43:25.834Z,2.13
2018-09-03T12:46:01.683Z,2.50
2018-09-03T12:48:32.810Z,1.90
2018-09-03T12:51:04.063Z,2.20
2018-09-03T12:53:34.872Z,1.83
2018-09-03T12:56:04.552Z,1.80
2018-09-03T12:58:36.203Z,3.23
2018-09-03T13:01:05.766Z,2.20
2018-09-03T13:03:35.134Z,1.80
2018-09-03T13:06:04.607Z,1.90
2018-09-03T13:08:35.918Z,2.10
2018-09-03T13:11:05.335Z,2.20
2018-09-03T13:13:35.358Z,1.80
2018-09-03T13:16:04.758Z,1.90
2018-09-03T13:18:34.216Z,2.00
2018-09-03T13:21:03.574Z,2.20
2018-09-03T13:23:33.618Z,1.80
2018-09-03T13:26:03.258Z,1.90
2018-09-03T13:28:32.836Z,1.90
2018-09-03T13:31:02.348Z,2.87
2018-09-03T13:33:54.760Z,1.93
2018-09-03T13:36:24.158Z,1.83
2018-09-03T13:38:53.511Z,1.53
2018-09-03T13:41:22.938Z,1.80
2018-09-03T13:43:52.863Z,3.70
2018-09-03T13:46:22.772Z,1.93
2018-09-03T13:48:52.228Z,1.80
2018-09-03T13:51:21.586Z,2.50
2018-09-03T13:53:50.979Z,3.07
2018-09-03T13:56:20.549Z,2.70
2018-09-03T13:58:50.377Z,2.57
2018-09-03T14:01:20.012Z,2.20
2018-09-03T14:03:49.459Z,2.20
2018-09-03T14:06:18.819Z,3.30
2018-09-03T14:08:48.339Z,2.27
2018-09-03T14:11:20.711Z,2.10
2018-09-03T14:13:51.393Z,3.10
2018-09-03T14:16:21.662Z,2.00
2018-09-03T14:18:51.059Z,2.37
2018-09-03T14:21:20.869Z,2.17
2018-09-03T14:23:50.350Z,2.00
2018-09-03T14:26:23.864Z,2.53
2018-09-03T14:28:53.350Z,2.50
2018-09-03T14:31:24.420Z,2.83
2018-09-03T14:33:55.228Z,2.23
2018-09-03T14:36:24.750Z,2.03
2018-09-03T14:38:54.334Z,2.37
2018-09-03T14:41:24.324Z,2.67
2018-09-03T14:43:53.728Z,1.90
2018-09-03T14:46:23.649Z,1.90
2018-09-03T14:48:53.119Z,2.20
2018-09-03T14:51:23.017Z,2.10
2018-09-03T14:53:52.528Z,1.93
2018-09-03T14:56:22.144Z,1.80
2018-09-03T14:58:51.642Z,1.97
2018-09-03T15:01:21.091Z,2.10
2018-09-03T15:03:50.499Z,2.17
2018-09-03T15:06:23.837Z,2.30
2018-09-03T15:08:53.974Z,1.90
2018-09-03T15:11:23.383Z,2.20
2018-09-03T15:13:58.247Z,2.43
2018-09-03T15:16:31.817Z,2.57
2018-09-03T15:19:03.961Z,2.17
2018-09-03T15:21:36.105Z,2.53
2018-09-03T15:24:06.229Z,2.40
2018-09-03T15:26:35.859Z,2.40
2018-09-03T15:29:05.122Z,2.20
2018-09-03T15:31:34.577Z,2.57
2018-09-03T15:34:04.186Z,2.27
2018-09-03T15:36:34.682Z,2.60
2018-09-03T15:39:05.230Z,4.53
2018-09-03T15:41:35.734Z,2.13
2018-09-03T15:44:05.620Z,3.23
2018-09-03T15:46:34.996Z,3.87
2018-09-03T15:49:04.481Z,4.03
2018-09-03T15:51:34.562Z,3.20
2018-09-03T15:54:03.933Z,2.67
2018-09-03T15:56:33.263Z,2.40
2018-09-03T15:59:02.692Z,2.27
2018-09-03T16:01:32.051Z,4.10
2018-09-03T16:04:01.393Z,4.63
2018-09-03T16:06:31.448Z,2.50
2018-09-03T16:09:01.372Z,2.97
2018-09-03T16:11:32.143Z,2.60
2018-09-03T16:14:01.475Z,5.50
2018-09-03T16:16:30.793Z,2.90
2018-09-03T16:19:00.643Z,4.77
2018-09-03T16:21:30.101Z,4.03
2018-09-03T16:24:00.647Z,2.60
2018-09-03T16:26:30.105Z,2.40
2018-09-03T16:28:59.562Z,2.60
2018-09-03T16:31:29.730Z,2.23
2018-09-03T16:33:59.130Z,2.20
2018-09-03T16:36:28.918Z,3.17
2018-09-03T16:38:58.593Z,2.30
2018-09-03T16:41:30.644Z,2.30
2018-09-03T16:44:01.201Z,3.47
2018-09-03T16:46:31.414Z,2.67
2018-09-03T16:49:02.566Z,2.43
2018-09-03T16:51:33.464Z,2.33
2018-09-03T16:54:03.762Z,2.07
2018-09-03T16:56:33.864Z,3.40
2018-09-03T16:59:04.257Z,2.00
2018-09-03T17:01:34.192Z,2.87
2018-09-03T17:04:05.642Z,2.93
2018-09-03T17:06:35.582Z,4.83
2018-09-03T17:09:06.040Z,2.67
2018-09-03T17:11:36.395Z,2.30
2018-09-03T17:14:06.095Z,2.23
2018-09-03T17:16:35.479Z,3.33
2018-09-03T17:19:04.910Z,2.37
2018-09-03T17:21:34.279Z,2.37
2018-09-03T17:24:03.702Z,2.67
2018-09-03T17:26:34.353Z,2.30
2018-09-03T17:29:05.527Z,2.40
2018-09-03T17:31:36.595Z,3.23
2018-09-03T17:34:06.178Z,3.53
2018-09-03T17:36:35.655Z,2.57
2018-09-03T17:39:06.831Z,2.70
2018-09-03T17:41:36.358Z,2.27
2018-09-03T17:44:06.015Z,2.30
2018-09-03T17:46:38.351Z,3.07
2018-09-03T17:49:08.075Z,2.50
2018-09-03T17:51:39.828Z,2.30
2018-09-03T17:54:16.485Z,2.40
2018-09-03T17:56:48.967Z,2.40
2018-09-03T17:59:21.473Z,2.70
2018-09-03T18:01:51.322Z,2.13
2018-09-03T18:04:24.473Z,2.60
2018-09-03T18:06:54.180Z,2.63
2018-09-03T18:09:23.605Z,2.50
2018-09-03T18:11:53.762Z,2.97
2018-09-03T18:14:23.323Z,2.80
2018-09-03T18:16:55.721Z,2.90
2018-09-03T18:19:27.807Z,2.67
2018-09-03T18:21:57.554Z,2.93
2018-09-03T18:24:28.413Z,2.90
2018-09-03T18:26:58.137Z,3.20
2018-09-03T18:29:27.737Z,3.13
2018-09-03T18:31:57.567Z,3.13
2018-09-03T18:34:27.376Z,2.77
2018-09-03T18:36:57.210Z,3.57
2018-09-03T18:39:26.634Z,2.97
2018-09-03T18:41:58.028Z,4.10
2018-09-03T18:44:28.695Z,5.80
2018-09-03T18:46:59.131Z,2.93
2018-09-03T18:49:28.568Z,2.97
2018-09-03T18:51:59.359Z,3.50
2018-09-03T18:54:29.808Z,5.60
2018-09-03T18:57:00.035Z,3.80
2018-09-03T18:59:29.731Z,3.30
2018-09-03T19:02:06.137Z,4.00
2018-09-03T19:04:37.020Z,3.70
2018-09-03T19:07:09.181Z,3.97
2018-09-03T19:09:40.460Z,3.40
2018-09-03T19:12:11.944Z,3.53
2018-09-03T19:14:44.521Z,3.90
2018-09-03T19:17:14.149Z,3.37
2018-09-03T19:19:44.680Z,4.07
2018-09-03T19:22:14.884Z,3.57
2018-09-03T19:24:45.052Z,3.70
2018-09-03T19:27:15.732Z,3.17
2018-09-03T19:29:46.203Z,3.03
2018-09-03T19:32:16.008Z,3.43
2018-09-03T19:34:54.650Z,4.17
2018-09-03T19:37:27.133Z,3.30
2018-09-03T19:40:04.152Z,4.57
2018-09-03T19:42:35.302Z,3.50
2018-09-03T19:47:44.811Z,4.17
2018-09-03T19:50:17.260Z,3.93
2018-09-03T19:52:46.761Z,5.97
2018-09-03T19:55:16.309Z,4.30
2018-09-03T19:57:47.108Z,5.63
2018-09-03T20:00:16.455Z,7.30
2018-09-03T20:02:45.993Z,5.90
2018-09-03T20:05:15.518Z,6.73
2018-09-03T20:07:45.365Z,6.53
2018-09-03T20:10:19.782Z,7.00
2018-09-03T20:12:56.886Z,7.33
2018-09-03T20:15:28.270Z,7.13
2018-09-03T20:18:02.363Z,8.83
2018-09-03T20:20:32.928Z,7.10
2018-09-03T20:23:02.577Z,8.17
2018-09-03T20:25:32.578Z,7.83
2018-09-03T20:28:02.291Z,7.63
2018-09-03T20:30:34.119Z,7.93
2018-09-03T20:33:37.563Z,8.10
2018-09-03T20:36:06.994Z,6.43
2018-09-03T20:38:36.875Z,7.40
2018-09-03T20:41:06.310Z,6.00
2018-09-03T20:43:35.662Z,7.50
2018-09-03T20:46:05.192Z,8.23
2018-09-03T20:48:34.545Z,7.80
2018-09-03T20:51:04.797Z,7.67
2018-09-03T20:53:34.799Z,7.67
2018-09-03T20:56:04.385Z,6.70
2018-09-03T20:58:34.184Z,7.93
2018-09-03T21:01:04.504Z,7.57
2018-09-03T21:03:34.940Z,9.67
2018-09-03T21:06:04.344Z,7.97
2018-09-03T21:08:33.681Z,8.80
2018-09-03T21:11:03.277Z,7.50
2018-09-03T21:13:33.460Z,8.63
2018-09-03T21:16:03.693Z,10.57
2018-09-03T21:18:33.605Z,7.53
2018-09-03T21:21:02.999Z,6.77
2018-09-03T21:23:32.341Z,9.93
2018-09-03T21:26:01.728Z,10.40
2018-09-03T21:28:31.067Z,9.20
2018-09-03T21:31:00.451Z,8.43
2018-09-03T21:33:29.853Z,9.13
2018-09-03T21:35:59.227Z,11.47
2018-09-03T21:38:28.646Z,9.93
2018-09-03T21:40:57.994Z,11.30
2018-09-03T21:43:27.395Z,10.33
2018-09-03T21:45:57.515Z,10.17
2018-09-03T21:48:26.884Z,11.90
2018-09-03T21:50:56.229Z,9.20
2018-09-03T21:53:25.622Z,10.20
2018-09-03T21:55:55.133Z,10.23
2018-09-03T21:58:24.468Z,12.27
2018-09-03T22:00:53.969Z,11.90
2018-09-03T22:03:23.344Z,10.63
2018-09-03T22:05:52.777Z,13.60
2018-09-03T22:08:22.692Z,11.20
2018-09-03T22:10:52.160Z,12.20
2018-09-03T22:13:21.431Z,12.10
2018-09-03T22:15:50.866Z,15.37
2018-09-03T22:18:20.373Z,13.43
2018-09-03T22:20:50.286Z,12.23
2018-09-03T22:23:19.637Z,13.50
2018-09-03T22:25:49.694Z,11.87
2018-09-03T22:28:19.076Z,13.60
2018-09-03T22:30:48.495Z,13.37
2018-09-03T22:33:17.866Z,14.00
2018-09-03T22:35:47.248Z,12.63
2018-09-03T22:38:16.879Z,14.27
2018-09-03T22:40:46.310Z,12.03
2018-09-03T22:43:15.613Z,12.50
2018-09-03T22:45:45.383Z,12.47
2018-09-03T22:48:14.691Z,11.50
2018-09-03T22:50:44.011Z,12.90
2018-09-03T22:53:13.423Z,11.57
2018-09-03T22:55:42.997Z,10.13
2018-09-03T22:58:12.464Z,14.13
2018-09-03T23:00:41.783Z,16.17
2018-09-03T23:03:11.131Z,11.33
2018-09-03T23:05:40.495Z,14.27
2018-09-03T23:08:09.788Z,12.03
2018-09-03T23:10:39.716Z,13.67
2018-09-03T23:13:09.543Z,14.83
2018-09-03T23:15:39.097Z,13.37
2018-09-03T23:18:08.529Z,12.67
2018-09-03T23:20:38.575Z,16.13
2018-09-03T23:23:08.743Z,16.23
2018-09-03T23:25:38.753Z,16.10
2018-09-03T23:28:08.166Z,13.23
2018-09-03T23:30:37.535Z,14.70
2018-09-03T23:33:07.096Z,16.60
2018-09-03T23:35:36.410Z,15.73
2018-09-03T23:38:06.065Z,17.67
2018-09-03T23:40:35.615Z,18.03
2018-09-03T23:43:04.987Z,16.57
2018-09-03T23:45:34.361Z,18.93
2018-09-03T23:48:04.295Z,20.43
2018-09-03T23:50:33.694Z,20.37
2018-09-03T23:53:03.188Z,26.37
2018-09-03T23:55:32.668Z,22.90
2018-09-03T23:58:02.105Z,25.00
